x

Ne St Martin - 330 Nm Ne St Martin Is (41044) Wave Buoy

6:50am - Sat 2nd Aug 2014 All times are UTC.

  • Sig Wave height 4.3ft
  • Swell Direction
  • Peak Period 11s
  • Average Period 6s
  • Wind
    11mph, 16mph gusts
  • Sea Temp 83°f
  • Air Temp 81°f
  • Sea Pressure 1018.9mb

More Historic Weather Station data

Upgrade to MSW Pro to gain access to the past 30 days of data for over 8000 Wavebouys and Weather Stations around the globe.

Join Pro

Comparision Forecast

View Surf forecast
   
Sat 08/02 6:50am 4.5ft 11s 6s 11 16 mph 1018.9mb 83f 81f
5:50am 4.5ft 11s 6s 11 16 mph 1018.9mb 83f 81f
4:50am 4.5ft 11s 6s 11 13 mph 1019.3mb 83f 81f
3:50am 4ft 11s 6s 11 13 mph 1019.9mb 83f 81f
2:50am 4.5ft 8s 6s 11
mph
1020mb 83f 81f
1:50am 4.5ft 8s 6s 11 13 mph 1019.7mb 83f 82f
12:50am 4.5ft 8s 6s 11 13 mph 1019.3mb 83f 82f
Fri 08/01 11:50pm 4ft 7s 5s 11 13 mph 1018.9mb 83f 82f
10:50pm 4ft 8s 5s 11 13 mph 1018.5mb 83f 82f
9:50pm 4ft 7s 6s 11 13 mph 1018mb 83f 82f
8:50pm 3.5ft 9s 5s 11 13 mph 1017.9mb 83f 82f
7:50pm 3.5ft 8s 5s 13 16 mph 1017.6mb 83f 82f
6:50pm 3.5ft 8s 5s 11 13 mph 1017.8mb 83f 82f
5:50pm 4ft 7s 5s 11 13 mph 1018mb 83f 82f
4:50pm 4ft 7s 5s 13 16 mph 1018.1mb 83f 82f
3:50pm 3.5ft 7s 5s 13 16 mph 1018.3mb 83f 82f
2:50pm 4ft 7s 5s 13 18 mph 1018.3mb 83f 81f
1:50pm 3.5ft 7s 5s 13 16 mph 1018.4mb 82f 81f
12:50pm 3.5ft 7s 5s 13 16 mph 1018.3mb 82f 81f
11:50am 3.5ft 6s 5s 11 13 mph 1018mb 82f 81f
10:50am 3.5ft 6s 5s 13 16 mph 1017.7mb 82f 81f
9:50am 3.5ft 6s 5s 11 13 mph 1017.4mb 82f 81f
8:50am 3.5ft 7s 5s 11 13 mph 1017.2mb 82f 81f
7:50am 3.5ft 6s 5s 11 13 mph 1017.2mb 82f 81f
6:50am 3.5ft 6s 5s 13 16 mph 1017.3mb 82f 81f
5:50am 3.5ft 6s 5s 13 16 mph 1017.6mb 82f 81f
4:50am 3.5ft 6s 5s 11 16 mph 1018.1mb 82f 81f
3:50am 3.5ft 7s 5s 16 18 mph 1018.4mb 83f 82f
2:50am 3.5ft 6s 5s 11 16 mph 1018.8mb 83f 81f
1:50am 3.5ft 6s 5s 16 18 mph 1018.9mb 83f 81f
12:50am 3.5ft 6s 5s 13 16 mph 1018.6mb 83f 82f
Thu 07/31 11:50pm 3.5ft 6s 5s 13 16 mph 1018.2mb 83f 82f
10:50pm 3.5ft 6s 5s 13
mph
1017.8mb 83f 81f
9:50pm 3.5ft 6s 5s 11 13 mph 1017.4mb 83f 81f
8:50pm 3.5ft 7s 5s 11 13 mph 1017.3mb 83f 81f
7:50pm 3.5ft 8s 5s 13 16 mph 1017.2mb 83f 81f
6:50pm 3.5ft 7s 5s 11 13 mph 1017.6mb 83f 81f
5:50pm 3.5ft 6s 5s 16 18 mph 1017.9mb 83f 81f
4:50pm 3.5ft 6s 5s 13 16 mph 1018.3mb 83f 81f
3:50pm 3.5ft 6s 5s 16 18 mph 1018.5mb 83f 81f
2:50pm 3.5ft 6s 5s 11 13 mph 1018.9mb 82f 81f
1:50pm 3.5ft 6s 5s 11 13 mph 1018.9mb 82f 81f
12:50pm 3.5ft 6s 5s 13 16 mph 1019mb 82f 81f
11:50am 3.5ft 6s 5s 11 16 mph 1018.7mb 82f 81f
10:50am 3.5ft 6s 5s 13 16 mph 1018.5mb 82f 81f
9:50am 3.5ft 6s 5s 13 18 mph 1018.2mb 82f 81f
8:50am 4ft 5s 5s 13 16 mph 1018.3mb 82f 81f
7:50am 4ft 6s 5s 13 16 mph 1018.1mb 82f 81f
6:50am 4ft 7s 5s 13 16 mph 1018mb 82f 81f
5:50am 3.5ft 8s 5s 16 18 mph 1018.1mb 82f 81f
4:50am 3.5ft 5s 5s 18 29 mph 1018.7mb 82f 79f
3:50am 4ft 6s 5s 16 18 mph 1019.3mb 82f 81f
1:50am 4ft 6s 5s 13 16 mph 1020.1mb 82f 81f
12:50am 4.5ft 7s 5s 13 16 mph 1019.6mb 82f 81f
Wed 07/30 11:50pm 4ft 7s 5s 11 16 mph 1019.4mb 83f 81f
10:50pm 3.5ft 6s 5s 11 13 mph 1019mb 83f 81f
9:50pm 4ft 6s 5s 11 16 mph 1018.8mb 83f 81f
8:50pm 4ft 5s 5s 13
mph
1018.4mb 83f 81f
7:50pm 4ft 6s 5s 9 11 mph 1018.6mb 83f 81f
6:50pm 4.5ft 6s 5s 11 13 mph 1018.6mb 83f 81f
5:50pm 4.5ft 5s 5s 11 13 mph 1018.9mb 83f 81f
4:50pm 4ft 6s 5s 11 13 mph 1019.2mb 83f 81f
3:50pm 4.5ft 5s 5s 13 16 mph 1019.6mb 82f 81f
2:50pm 4.5ft 5s 5s 13 18 mph 1019.8mb 82f 81f
1:50pm 4.5ft 6s 5s 16 20 mph 1020mb 82f 81f
12:50pm 4.5ft 5s 5s 13 18 mph 1019.9mb 82f 81f
11:50am 4ft 5s 5s 13 16 mph 1019.7mb 82f 81f
10:50am 4ft 5s 5s 13 18 mph 1019.6mb 82f 80f
9:50am 4ft 6s 5s 16 18 mph 1019.1mb 82f 80f
8:50am 4ft 5s 5s 18 25 mph 1018.7mb 82f 79f
7:50am 4ft 6s 5s 16 18 mph 1018.6mb 82f 81f
6:50am 4ft 8s 5s 16 18 mph 1018.8mb 82f 81f
5:50am 4ft 6s 5s 18 20 mph 1019mb 82f 81f
4:50am 4ft 5s 5s 16 18 mph 1019.4mb 82f 81f
3:50am 3.5ft 9s 5s 16 18 mph 1020mb 82f 81f
2:50am 3.5ft 8s 5s 13 18 mph 1020.5mb 82f 81f
1:50am 3.5ft 5s 5s 16 20 mph 1020.4mb 82f 81f
12:50am 3.5ft 8s 5s 16 18 mph 1020.1mb 82f 81f
Tue 07/29 11:50pm 3.5ft 9s 5s 16 18 mph 1019.7mb 82f 81f
10:50pm 4ft 8s 5s 16 18 mph 1019.3mb 82f 82f
9:50pm 3.5ft 8s 5s 16 18 mph 1019.1mb 83f 82f
8:50pm 3.5ft 9s 5s 16 18 mph 1018.9mb 82f 82f
7:50pm 3.5ft 5s 5s 16 18 mph 1019mb 83f 82f
6:50pm 3.5ft 4s 5s 13 16 mph 1019.3mb 83f 82f
5:50pm 3.5ft 9s 5s 13 18 mph 1019.5mb 83f 82f
4:50pm 3.5ft 9s 5s 13 16 mph 1020mb 82f 81f
3:50pm 3.5ft 8s 5s 13 16 mph 1020.1mb 82f 81f
2:50pm 4ft 5s 5s 13 16 mph 1020.2mb 82f 81f
1:50pm 3.5ft 8s 5s 13 16 mph 1020.2mb 82f 81f
12:50pm 4ft 5s 5s 13 16 mph 1019.7mb 82f 81f
11:50am 3.5ft 7s 5s 16 18 mph 1019.5mb 82f 81f
10:50am 4ft 5s 5s 13 16 mph 1019.2mb 82f 81f
9:50am 3.5ft 8s 5s 11 13 mph 1018.9mb 82f 79f
8:50am 3.5ft 8s 5s 11 13 mph 1018.4mb 82f 80f
7:50am 3.5ft 7s 5s 16 18 mph 1018.1mb 82f 79f